sensor_id;sensor_type;location;lat;lon;timestamp;pressure;altitude;pressure_sealevel;temperature;humidity
24558;BME280;12726;49.148;8.582;2023-01-26T00:01:45;101142.88;;;0.42;93.54
24558;BME280;12726;49.148;8.582;2023-01-26T00:04:30;101135.75;;;0.43;93.72
24558;BME280;12726;49.148;8.582;2023-01-26T00:07:16;101132.00;;;0.45;93.38
24558;BME280;12726;49.148;8.582;2023-01-26T00:10:03;101124.50;;;0.50;93.06
24558;BME280;12726;49.148;8.582;2023-01-26T00:12:49;101119.28;;;0.39;92.77
24558;BME280;12726;49.148;8.582;2023-01-26T00:15:35;101118.84;;;0.34;93.22
24558;BME280;12726;49.148;8.582;2023-01-26T00:18:20;101119.78;;;0.33;93.38
24558;BME280;12726;49.148;8.582;2023-01-26T00:21:07;101128.16;;;0.28;93.27
24558;BME280;12726;49.148;8.582;2023-01-26T00:23:52;101121.16;;;0.27;93.54
24558;BME280;12726;49.148;8.582;2023-01-26T00:26:39;101116.09;;;0.24;93.72
24558;BME280;12726;49.148;8.582;2023-01-26T00:29:24;101107.19;;;0.25;93.76
24558;BME280;12726;49.148;8.582;2023-01-26T00:32:10;101111.13;;;0.31;93.90
24558;BME280;12726;49.148;8.582;2023-01-26T00:34:55;101111.25;;;0.29;93.66
24558;BME280;12726;49.148;8.582;2023-01-26T00:37:41;101115.16;;;0.25;93.82
24558;BME280;12726;49.148;8.582;2023-01-26T00:40:26;101109.97;;;0.24;94.15
24558;BME280;12726;49.148;8.582;2023-01-26T00:43:13;101106.34;;;0.25;94.00
24558;BME280;12726;49.148;8.582;2023-01-26T00:45:58;101099.50;;;0.22;94.19
24558;BME280;12726;49.148;8.582;2023-01-26T00:48:44;101099.50;;;0.22;94.08
24558;BME280;12726;49.148;8.582;2023-01-26T00:51:29;101096.09;;;0.31;93.85
24558;BME280;12726;49.148;8.582;2023-01-26T00:54:15;101098.63;;;0.33;92.79
24558;BME280;12726;49.148;8.582;2023-01-26T00:57:00;101084.72;;;0.41;92.51
24558;BME280;12726;49.148;8.582;2023-01-26T00:59:47;101081.63;;;0.35;92.64
24558;BME280;12726;49.148;8.582;2023-01-26T01:02:32;101081.28;;;0.29;93.12
24558;BME280;12726;49.148;8.582;2023-01-26T01:05:18;101075.94;;;0.19;93.58
24558;BME280;12726;49.148;8.582;2023-01-26T01:08:03;101074.66;;;0.14;93.88
24558;BME280;12726;49.148;8.582;2023-01-26T01:10:48;101075.63;;;0.13;94.73
24558;BME280;12726;49.148;8.582;2023-01-26T01:13:34;101077.88;;;0.17;95.07
24558;BME280;12726;49.148;8.582;2023-01-26T01:16:21;101085.09;;;0.15;94.76
24558;BME280;12726;49.148;8.582;2023-01-26T01:19:07;101072.00;;;0.14;95.03
24558;BME280;12726;49.148;8.582;2023-01-26T01:21:53;101070.22;;;0.14;95.41
24558;BME280;12726;49.148;8.582;2023-01-26T01:24:38;101073.66;;;0.15;94.90
24558;BME280;12726;49.148;8.582;2023-01-26T01:27:23;101063.06;;;0.15;94.78
24558;BME280;12726;49.148;8.582;2023-01-26T01:30:10;101072.69;;;0.16;94.78
24558;BME280;12726;49.148;8.582;2023-01-26T01:32:57;101064.75;;;0.16;94.49
24558;BME280;12726;49.148;8.582;2023-01-26T01:35:43;101070.06;;;0.16;94.16
24558;BME280;12726;49.148;8.582;2023-01-26T01:38:28;101067.56;;;0.14;93.87
24558;BME280;12726;49.148;8.582;2023-01-26T01:41:16;101068.66;;;0.12;93.80
24558;BME280;12726;49.148;8.582;2023-01-26T01:44:13;101066.13;;;0.10;93.92
24558;BME280;12726;49.148;8.582;2023-01-26T01:47:01;101060.44;;;0.15;93.50
24558;BME280;12726;49.148;8.582;2023-01-26T01:49:50;101057.34;;;0.10;93.61
24558;BME280;12726;49.148;8.582;2023-01-26T01:52:36;101057.34;;;0.10;93.79
24558;BME280;12726;49.148;8.582;2023-01-26T01:55:22;101067.81;;;0.11;94.10
24558;BME280;12726;49.148;8.582;2023-01-26T01:58:08;101059.34;;;0.17;93.88
24558;BME280;12726;49.148;8.582;2023-01-26T02:00:54;101054.03;;;0.17;93.38
24558;BME280;12726;49.148;8.582;2023-01-26T02:03:40;101058.78;;;0.14;93.83
24558;BME280;12726;49.148;8.582;2023-01-26T02:06:32;101063.47;;;0.10;93.91
24558;BME280;12726;49.148;8.582;2023-01-26T02:09:22;101057.34;;;0.10;94.28
24558;BME280;12726;49.148;8.582;2023-01-26T02:12:29;101053.16;;;0.07;94.67
24558;BME280;12726;49.148;8.582;2023-01-26T02:15:15;101056.38;;;0.11;94.64
24558;BME280;12726;49.148;8.582;2023-01-26T02:18:02;101050.97;;;0.12;94.49
24558;BME280;12726;49.148;8.582;2023-01-26T02:20:50;101043.84;;;0.13;94.05
24558;BME280;12726;49.148;8.582;2023-01-26T02:23:55;101040.16;;;0.04;93.75
24558;BME280;12726;49.148;8.582;2023-01-26T02:26:43;101050.50;;;0.07;93.99
24558;BME280;12726;49.148;8.582;2023-01-26T02:29:28;101046.88;;;0.08;94.24
24558;BME280;12726;49.148;8.582;2023-01-26T02:32:14;101055.94;;;0.06;93.98
24558;BME280;12726;49.148;8.582;2023-01-26T02:34:59;101043.66;;;0.05;94.53
24558;BME280;12726;49.148;8.582;2023-01-26T02:37:45;101053.16;;;0.07;94.60
24558;BME280;12726;49.148;8.582;2023-01-26T02:40:36;101051.31;;;0.08;94.77
24558;BME280;12726;49.148;8.582;2023-01-26T02:43:25;101041.44;;;0.10;95.50
24558;BME280;12726;49.148;8.582;2023-01-26T02:46:10;101036.75;;;0.13;95.39
24558;BME280;12726;49.148;8.582;2023-01-26T02:48:56;101029.50;;;0.15;95.38
24558;BME280;12726;49.148;8.582;2023-01-26T02:51:59;101027.56;;;0.17;95.49
24558;BME280;12726;49.148;8.582;2023-01-26T02:54:44;101032.75;;;0.19;95.67
24558;BME280;12726;49.148;8.582;2023-01-26T02:57:48;101027.56;;;0.17;95.03
24558;BME280;12726;49.148;8.582;2023-01-26T03:00:36;101024.91;;;0.17;94.98
24558;BME280;12726;49.148;8.582;2023-01-26T03:03:25;101016.25;;;0.15;94.61
24558;BME280;12726;49.148;8.582;2023-01-26T03:06:24;101020.47;;;0.18;94.61
24558;BME280;12726;49.148;8.582;2023-01-26T03:09:10;101012.41;;;0.19;94.70
24558;BME280;12726;49.148;8.582;2023-01-26T03:11:55;101007.22;;;0.18;94.22
24558;BME280;12726;49.148;8.582;2023-01-26T03:14:40;101015.88;;;0.20;94.49
24558;BME280;12726;49.148;8.582;2023-01-26T03:17:27;101016.72;;;0.20;94.27
24558;BME280;12726;49.148;8.582;2023-01-26T03:20:12;101012.41;;;0.19;94.36
24558;BME280;12726;49.148;8.582;2023-01-26T03:23:15;101009.88;;;0.18;94.29
24558;BME280;12726;49.148;8.582;2023-01-26T03:26:17;101007.34;;;0.16;94.14
24558;BME280;12726;49.148;8.582;2023-01-26T03:29:20;101009.88;;;0.18;94.41
24558;BME280;12726;49.148;8.582;2023-01-26T03:32:06;101005.53;;;0.17;94.46
24558;BME280;12726;49.148;8.582;2023-01-26T03:34:52;101013.38;;;0.18;94.49
24558;BME280;12726;49.148;8.582;2023-01-26T03:37:38;101009.88;;;0.18;94.88
24558;BME280;12726;49.148;8.582;2023-01-26T03:40:26;101008.91;;;0.19;94.60
24558;BME280;12726;49.148;8.582;2023-01-26T03:43:29;101008.31;;;0.15;94.87
24558;BME280;12726;49.148;8.582;2023-01-26T03:46:31;100995.78;;;0.17;95.14
24558;BME280;12726;49.148;8.582;2023-01-26T03:49:34;100999.41;;;0.16;95.32
24558;BME280;12726;49.148;8.582;2023-01-26T03:52:39;101000.38;;;0.15;95.59
24558;BME280;12726;49.148;8.582;2023-01-26T03:55:42;100997.03;;;0.13;96.54
24558;BME280;12726;49.148;8.582;2023-01-26T03:58:45;100988.94;;;0.15;97.20
24558;BME280;12726;49.148;8.582;2023-01-26T04:01:31;100984.50;;;0.15;98.13
24558;BME280;12726;49.148;8.582;2023-01-26T04:04:16;100983.81;;;0.13;98.85
24558;BME280;12726;49.148;8.582;2023-01-26T04:07:19;100985.75;;;0.11;99.67
24558;BME280;12726;49.148;8.582;2023-01-26T04:10:24;100986.31;;;0.15;100.00
24558;BME280;12726;49.148;8.582;2023-01-26T04:13:10;100985.50;;;0.14;100.00
24558;BME280;12726;49.148;8.582;2023-01-26T04:16:12;100978.75;;;0.10;100.00
24558;BME280;12726;49.148;8.582;2023-01-26T04:19:15;100971.53;;;0.12;100.00
24558;BME280;12726;49.148;8.582;2023-01-26T04:22:18;100978.31;;;0.05;100.00
24558;BME280;12726;49.148;8.582;2023-01-26T04:25:05;100982.91;;;0.03;100.00
24558;BME280;12726;49.148;8.582;2023-01-26T04:27:52;100974.84;;;0.05;100.00
24558;BME280;12726;49.148;8.582;2023-01-26T04:30:37;100976.53;;;0.06;100.00
24558;BME280;12726;49.148;8.582;2023-01-26T04:33:23;100970.19;;;-0.03;100.00
24558;BME280;12726;49.148;8.582;2023-01-26T04:36:09;100970.06;;;-0.02;100.00
24558;BME280;12726;49.148;8.582;2023-01-26T04:38:55;100965.88;;;-0.04;100.00
24558;BME280;12726;49.148;8.582;2023-01-26T04:41:40;100967.22;;;-0.10;100.00
24558;BME280;12726;49.148;8.582;2023-01-26T04:44:27;100965.44;;;-0.09;100.00
24558;BME280;12726;49.148;8.582;2023-01-26T04:47:13;100968.31;;;-0.12;100.00
24558;BME280;12726;49.148;8.582;2023-01-26T04:49:58;100964.38;;;-0.18;100.00
24558;BME280;12726;49.148;8.582;2023-01-26T04:52:44;100963.34;;;-0.26;100.00
24558;BME280;12726;49.148;8.582;2023-01-26T04:55:29;100958.34;;;-0.29;100.00
24558;BME280;12726;49.148;8.582;2023-01-26T04:58:15;100957.75;;;-0.33;100.00
24558;BME280;12726;49.148;8.582;2023-01-26T05:01:02;100953.28;;;-0.32;100.00
24558;BME280;12726;49.148;8.582;2023-01-26T05:03:47;100951.63;;;-0.33;100.00
24558;BME280;12726;49.148;8.582;2023-01-26T05:06:33;100954.25;;;-0.33;100.00
24558;BME280;12726;49.148;8.582;2023-01-26T05:09:18;100958.59;;;-0.32;100.00
24558;BME280;12726;49.148;8.582;2023-01-26T05:12:04;100952.44;;;-0.33;100.00
24558;BME280;12726;49.148;8.582;2023-01-26T05:15:04;100950.66;;;-0.32;100.00
24558;BME280;12726;49.148;8.582;2023-01-26T05:17:51;100949.09;;;-0.35;100.00
24558;BME280;12726;49.148;8.582;2023-01-26T05:20:36;100960.50;;;-0.34;100.00
24558;BME280;12726;49.148;8.582;2023-01-26T05:23:22;100958.34;;;-0.29;100.00
24558;BME280;12726;49.148;8.582;2023-01-26T05:26:07;100960.38;;;-0.33;100.00
24558;BME280;12726;49.148;8.582;2023-01-26T05:28:52;100954.13;;;-0.32;100.00
24558;BME280;12726;49.148;8.582;2023-01-26T05:31:38;100952.44;;;-0.33;100.00
24558;BME280;12726;49.148;8.582;2023-01-26T05:34:25;100956.06;;;-0.34;100.00
24558;BME280;12726;49.148;8.582;2023-01-26T05:37:11;100953.53;;;-0.35;100.00
24558;BME280;12726;49.148;8.582;2023-01-26T05:39:56;100949.09;;;-0.35;100.00
24558;BME280;12726;49.148;8.582;2023-01-26T05:42:42;100953.28;;;-0.32;100.00
24558;BME280;12726;49.148;8.582;2023-01-26T05:45:27;100947.75;;;-0.29;100.00
24558;BME280;12726;49.148;8.582;2023-01-26T05:48:12;100948.97;;;-0.33;100.00
24558;BME280;12726;49.148;8.582;2023-01-26T05:50:59;100959.31;;;-0.30;100.00
24558;BME280;12726;49.148;8.582;2023-01-26T05:53:44;100950.53;;;-0.31;100.00
24558;BME280;12726;49.148;8.582;2023-01-26T05:56:30;100952.22;;;-0.30;100.00
24558;BME280;12726;49.148;8.582;2023-01-26T05:59:15;100953.28;;;-0.32;100.00
24558;BME280;12726;49.148;8.582;2023-01-26T06:02:00;100958.59;;;-0.32;100.00
24558;BME280;12726;49.148;8.582;2023-01-26T06:04:46;100951.63;;;-0.33;100.00
24558;BME280;12726;49.148;8.582;2023-01-26T06:07:33;100954.25;;;-0.33;100.00
24558;BME280;12726;49.148;8.582;2023-01-26T06:10:18;100959.56;;;-0.33;100.00
24558;BME280;12726;49.148;8.582;2023-01-26T06:13:03;100953.94;;;-0.40;100.00
24558;BME280;12726;49.148;8.582;2023-01-26T06:15:49;100955.63;;;-0.39;100.00
24558;BME280;12726;49.148;8.582;2023-01-26T06:18:34;100947.09;;;-0.43;100.00
24558;BME280;12726;49.148;8.582;2023-01-26T06:21:19;100954.06;;;-0.42;100.00
24558;BME280;12726;49.148;8.582;2023-01-26T06:24:07;100952.97;;;-0.39;100.00
24558;BME280;12726;49.148;8.582;2023-01-26T06:26:52;100958.66;;;-0.44;100.00
24558;BME280;12726;49.148;8.582;2023-01-26T06:29:37;100949.72;;;-0.43;100.00
24558;BME280;12726;49.148;8.582;2023-01-26T06:32:22;100966.31;;;-0.41;100.00
24558;BME280;12726;49.148;8.582;2023-01-26T06:35:08;100966.31;;;-0.41;100.00
24558;BME280;12726;49.148;8.582;2023-01-26T06:37:53;100971.50;;;-0.39;100.00
24558;BME280;12726;49.148;8.582;2023-01-26T06:40:40;100960.78;;;-0.37;100.00
24558;BME280;12726;49.148;8.582;2023-01-26T06:43:25;100974.84;;;-0.37;100.00
24558;BME280;12726;49.148;8.582;2023-01-26T06:46:11;100972.22;;;-0.37;100.00
24558;BME280;12726;49.148;8.582;2023-01-26T06:48:56;100964.63;;;-0.42;100.00
24558;BME280;12726;49.148;8.582;2023-01-26T06:51:51;100969.94;;;-0.42;100.00
24558;BME280;12726;49.148;8.582;2023-01-26T06:54:36;100978.13;;;-0.45;100.00
24558;BME280;12726;49.148;8.582;2023-01-26T06:57:23;100981.88;;;-0.47;100.00
24558;BME280;12726;49.148;8.582;2023-01-26T07:00:10;100984.50;;;-0.47;100.00
24558;BME280;12726;49.148;8.582;2023-01-26T07:02:56;100978.81;;;-0.43;100.00
24558;BME280;12726;49.148;8.582;2023-01-26T07:05:41;100981.63;;;-0.44;100.00
24558;BME280;12726;49.148;8.582;2023-01-26T07:08:26;100976.34;;;-0.44;100.00
24558;BME280;12726;49.148;8.582;2023-01-26T07:11:12;100986.63;;;-0.41;100.00
24558;BME280;12726;49.148;8.582;2023-01-26T07:13:59;100980.78;;;-0.45;100.00
24558;BME280;12726;49.148;8.582;2023-01-26T07:16:44;100982.47;;;-0.44;100.00
24558;BME280;12726;49.148;8.582;2023-01-26T07:19:29;100982.72;;;-0.47;100.00
24558;BME280;12726;49.148;8.582;2023-01-26T07:22:16;100980.66;;;-0.43;100.00
24558;BME280;12726;49.148;8.582;2023-01-26T07:25:01;100986.75;;;-0.43;100.00
24558;BME280;12726;49.148;8.582;2023-01-26T07:27:47;100980.66;;;-0.43;100.00
24558;BME280;12726;49.148;8.582;2023-01-26T07:30:33;100988.44;;;-0.42;100.00
24558;BME280;12726;49.148;8.582;2023-01-26T07:33:18;100992.22;;;-0.44;100.00
24558;BME280;12726;49.148;8.582;2023-01-26T07:36:04;100987.75;;;-0.44;100.00
24558;BME280;12726;49.148;8.582;2023-01-26T07:38:49;100977.28;;;-0.45;100.00
24558;BME280;12726;49.148;8.582;2023-01-26T07:41:35;100981.47;;;-0.43;100.00
24558;BME280;12726;49.148;8.582;2023-01-26T07:44:20;100984.28;;;-0.44;100.00
24558;BME280;12726;49.148;8.582;2023-01-26T07:47:07;100981.03;;;-0.48;100.00
24558;BME280;12726;49.148;8.582;2023-01-26T07:49:53;100988.59;;;-0.43;100.00
24558;BME280;12726;49.148;8.582;2023-01-26T07:52:38;100991.25;;;-0.43;100.00
24558;BME280;12726;49.148;8.582;2023-01-26T07:55:23;100995.22;;;-0.49;100.00
24558;BME280;12726;49.148;8.582;2023-01-26T07:58:09;100995.09;;;-0.47;100.00
24558;BME280;12726;49.148;8.582;2023-01-26T08:00:55;100997.50;;;-0.44;100.00
24558;BME280;12726;49.148;8.582;2023-01-26T08:03:42;100996.53;;;-0.43;100.00
24558;BME280;12726;49.148;8.582;2023-01-26T08:06:28;101003.03;;;-0.47;100.00
24558;BME280;12726;49.148;8.582;2023-01-26T08:09:13;101001.34;;;-0.48;100.00
24558;BME280;12726;49.148;8.582;2023-01-26T08:11:58;101000.66;;;-0.50;100.00
24558;BME280;12726;49.148;8.582;2023-01-26T08:14:44;100996.16;;;-0.50;100.00
24558;BME280;12726;49.148;8.582;2023-01-26T08:17:30;100998.81;;;-0.50;100.00
24558;BME280;12726;49.148;8.582;2023-01-26T08:20:18;101003.28;;;-0.50;100.00
24558;BME280;12726;49.148;8.582;2023-01-26T08:23:03;101000.25;;;-0.46;100.00
24558;BME280;12726;49.148;8.582;2023-01-26T08:25:48;101005.44;;;-0.44;100.00
24558;BME280;12726;49.148;8.582;2023-01-26T08:28:35;100998.56;;;-0.47;100.00
24558;BME280;12726;49.148;8.582;2023-01-26T08:31:21;101003.88;;;-0.47;100.00
24558;BME280;12726;49.148;8.582;2023-01-26T08:34:07;100998.47;;;-0.45;100.00
24558;BME280;12726;49.148;8.582;2023-01-26T08:36:54;100997.09;;;-0.40;100.00
24558;BME280;12726;49.148;8.582;2023-01-26T08:39:39;100994.06;;;-0.35;100.00
24558;BME280;12726;49.148;8.582;2023-01-26T08:42:25;101000.78;;;-0.31;100.00
24558;BME280;12726;49.148;8.582;2023-01-26T08:45:10;101009.44;;;-0.29;100.00
24558;BME280;12726;49.148;8.582;2023-01-26T08:47:55;101014.34;;;-0.24;100.00
24558;BME280;12726;49.148;8.582;2023-01-26T08:50:40;101011.06;;;-0.17;100.00
24558;BME280;12726;49.148;8.582;2023-01-26T08:53:29;101010.75;;;-0.23;100.00
24558;BME280;12726;49.148;8.582;2023-01-26T08:56:15;101004.72;;;-0.25;100.00
24558;BME280;12726;49.148;8.582;2023-01-26T08:59:00;101007.63;;;-0.28;100.00
24558;BME280;12726;49.148;8.582;2023-01-26T09:01:47;101011.56;;;-0.23;100.00
24558;BME280;12726;49.148;8.582;2023-01-26T09:04:32;101007.97;;;-0.22;100.00
24558;BME280;12726;49.148;8.582;2023-01-26T09:07:17;101008.94;;;-0.23;100.00
24558;BME280;12726;49.148;8.582;2023-01-26T09:10:06;101007.81;;;-0.20;100.00
24558;BME280;12726;49.148;8.582;2023-01-26T09:12:52;101000.47;;;-0.17;100.00
24558;BME280;12726;49.148;8.582;2023-01-26T09:15:37;101000.66;;;-0.09;100.00
24558;BME280;12726;49.148;8.582;2023-01-26T09:18:22;101007.78;;;-0.09;100.00
24558;BME280;12726;49.148;8.582;2023-01-26T09:21:08;101011.94;;;-0.07;100.00
24558;BME280;12726;49.148;8.582;2023-01-26T09:23:54;101005.00;;;-0.08;100.00
24558;BME280;12726;49.148;8.582;2023-01-26T09:26:41;101008.09;;;-0.03;100.00
24558;BME280;12726;49.148;8.582;2023-01-26T09:29:27;100997.09;;;0.02;100.00
24558;BME280;12726;49.148;8.582;2023-01-26T09:32:12;101004.50;;;0.08;100.00
24558;BME280;12726;49.148;8.582;2023-01-26T09:34:58;101008.00;;;0.09;100.00
24558;BME280;12726;49.148;8.582;2023-01-26T09:37:43;101009.56;;;0.11;99.87
24558;BME280;12726;49.148;8.582;2023-01-26T09:40:36;101000.38;;;0.15;100.00
24558;BME280;12726;49.148;8.582;2023-01-26T09:43:31;100995.09;;;0.15;100.00
24558;BME280;12726;49.148;8.582;2023-01-26T09:46:25;101000.00;;;0.20;100.00
24558;BME280;12726;49.148;8.582;2023-01-26T09:49:15;101001.53;;;0.22;99.67
24558;BME280;12726;49.148;8.582;2023-01-26T09:52:05;101012.97;;;0.23;100.00
24558;BME280;12726;49.148;8.582;2023-01-26T09:54:57;101013.50;;;0.17;100.00
24558;BME280;12726;49.148;8.582;2023-01-26T09:57:47;101012.41;;;0.19;100.00
24558;BME280;12726;49.148;8.582;2023-01-26T10:00:38;101008.19;;;0.17;100.00
24558;BME280;12726;49.148;8.582;2023-01-26T10:03:31;101016.53;;;0.12;100.00
24558;BME280;12726;49.148;8.582;2023-01-26T10:06:21;101003.44;;;0.11;100.00
24558;BME280;12726;49.148;8.582;2023-01-26T10:09:15;101009.13;;;0.06;100.00
24558;BME280;12726;49.148;8.582;2023-01-26T10:12:03;101008.28;;;0.06;100.00
24558;BME280;12726;49.148;8.582;2023-01-26T10:14:52;101006.47;;;0.06;100.00
24558;BME280;12726;49.148;8.582;2023-01-26T10:17:42;101007.88;;;0.10;100.00
24558;BME280;12726;49.148;8.582;2023-01-26T10:20:32;101009.25;;;0.05;100.00
24558;BME280;12726;49.148;8.582;2023-01-26T10:23:20;101005.63;;;0.06;100.00
24558;BME280;12726;49.148;8.582;2023-01-26T10:26:11;101007.66;;;-0.08;100.00
24558;BME280;12726;49.148;8.582;2023-01-26T10:28:57;100999.72;;;-0.08;100.00
24558;BME280;12726;49.148;8.582;2023-01-26T10:31:43;100988.41;;;-0.10;100.00
24558;BME280;12726;49.148;8.582;2023-01-26T10:34:31;100989.50;;;-0.12;100.00
24558;BME280;12726;49.148;8.582;2023-01-26T10:37:21;100986.47;;;-0.08;100.00
24558;BME280;12726;49.148;8.582;2023-01-26T10:40:08;100984.84;;;-0.20;100.00
24558;BME280;12726;49.148;8.582;2023-01-26T10:42:57;100992.13;;;-0.12;100.00
24558;BME280;12726;49.148;8.582;2023-01-26T10:45:44;100993.25;;;-0.15;100.00
24558;BME280;12726;49.148;8.582;2023-01-26T10:48:30;100981.94;;;-0.17;100.00
24558;BME280;12726;49.148;8.582;2023-01-26T10:51:22;100984.84;;;-0.20;100.00
24558;BME280;12726;49.148;8.582;2023-01-26T10:54:22;100984.00;;;-0.20;100.00
24558;BME280;12726;49.148;8.582;2023-01-26T10:57:14;100991.28;;;-0.13;100.00
24558;BME280;12726;49.148;8.582;2023-01-26T11:00:04;100984.59;;;-0.17;100.00
24558;BME280;12726;49.148;8.582;2023-01-26T11:02:53;100973.25;;;-0.08;100.00
24558;BME280;12726;49.148;8.582;2023-01-26T11:05:39;100978.66;;;-0.09;100.00
24558;BME280;12726;49.148;8.582;2023-01-26T11:08:32;100972.09;;;-0.15;100.00
24558;BME280;12726;49.148;8.582;2023-01-26T11:11:24;100969.16;;;-0.12;100.00
24558;BME280;12726;49.148;8.582;2023-01-26T11:14:11;100965.66;;;-0.12;100.00
24558;BME280;12726;49.148;8.582;2023-01-26T11:17:15;100958.44;;;-0.10;100.00
24558;BME280;12726;49.148;8.582;2023-01-26T11:20:22;100967.22;;;-0.10;100.00
24558;BME280;12726;49.148;8.582;2023-01-26T11:23:17;100960.31;;;-0.01;100.00
24558;BME280;12726;49.148;8.582;2023-01-26T11:26:36;100952.09;;;0.02;100.00
24558;BME280;12726;49.148;8.582;2023-01-26T11:29:36;100960.00;;;-0.08;99.73
24558;BME280;12726;49.148;8.582;2023-01-26T11:32:29;100952.06;;;-0.08;99.95
24558;BME280;12726;49.148;8.582;2023-01-26T11:35:25;100963.81;;;-0.01;99.01
24558;BME280;12726;49.148;8.582;2023-01-26T11:38:23;100955.72;;;0.01;99.37
24558;BME280;12726;49.148;8.582;2023-01-26T11:41:28;100953.78;;;0.03;99.58
24558;BME280;12726;49.148;8.582;2023-01-26T11:44:28;100950.59;;;0.09;99.74
24558;BME280;12726;49.148;8.582;2023-01-26T11:47:33;100951.19;;;0.13;99.05
24558;BME280;12726;49.148;8.582;2023-01-26T11:50:29;100950.38;;;0.22;98.07
24558;BME280;12726;49.148;8.582;2023-01-26T11:53:33;100947.59;;;0.23;97.08
24558;BME280;12726;49.148;8.582;2023-01-26T11:56:34;100946.94;;;0.31;94.78
24558;BME280;12726;49.148;8.582;2023-01-26T11:59:27;100934.81;;;0.28;92.99
24558;BME280;12726;49.148;8.582;2023-01-26T12:02:26;100936.03;;;0.24;93.52
24558;BME280;12726;49.148;8.582;2023-01-26T12:05:17;100927.13;;;0.25;92.69
24558;BME280;12726;49.148;8.582;2023-01-26T12:08:06;100924.63;;;0.24;92.42
24558;BME280;12726;49.148;8.582;2023-01-26T12:11:00;100922.69;;;0.26;92.28
24558;BME280;12726;49.148;8.582;2023-01-26T12:14:20;100921.47;;;0.39;92.31
24558;BME280;12726;49.148;8.582;2023-01-26T12:17:26;100923.88;;;0.43;90.92
24558;BME280;12726;49.148;8.582;2023-01-26T12:20:23;100917.06;;;0.50;90.92
24558;BME280;12726;49.148;8.582;2023-01-26T12:23:15;100915.38;;;0.49;90.91
24558;BME280;12726;49.148;8.582;2023-01-26T12:26:05;100907.59;;;0.57;91.06
24558;BME280;12726;49.148;8.582;2023-01-26T12:29:00;100900.19;;;0.60;90.14
24558;BME280;12726;49.148;8.582;2023-01-26T12:31:56;100893.91;;;0.52;89.94
24558;BME280;12726;49.148;8.582;2023-01-26T12:34:42;100892.50;;;0.48;90.64
24558;BME280;12726;49.148;8.582;2023-01-26T12:37:44;100897.50;;;0.51;91.22
24558;BME280;12726;49.148;8.582;2023-01-26T12:40:35;100869.94;;;0.53;90.25
24558;BME280;12726;49.148;8.582;2023-01-26T12:43:36;100875.09;;;0.55;89.08
24558;BME280;12726;49.148;8.582;2023-01-26T12:46:27;100873.16;;;0.57;87.41
24558;BME280;12726;49.148;8.582;2023-01-26T12:49:18;100885.44;;;0.67;87.44
24558;BME280;12726;49.148;8.582;2023-01-26T12:52:09;100884.88;;;0.64;87.80
24558;BME280;12726;49.148;8.582;2023-01-26T12:54:59;100882.47;;;0.51;88.58
24558;BME280;12726;49.148;8.582;2023-01-26T12:57:49;100883.59;;;0.49;87.96
24558;BME280;12726;49.148;8.582;2023-01-26T13:00:37;100884.25;;;0.41;88.69
24558;BME280;12726;49.148;8.582;2023-01-26T13:03:24;100877.84;;;0.44;89.12
24558;BME280;12726;49.148;8.582;2023-01-26T13:06:22;100881.19;;;0.46;88.88
24558;BME280;12726;49.148;8.582;2023-01-26T13:09:19;100878.41;;;0.47;85.82
24558;BME280;12726;49.148;8.582;2023-01-26T13:12:42;100868.94;;;0.45;86.21
24558;BME280;12726;49.148;8.582;2023-01-26T13:15:29;100863.38;;;0.48;85.62
24558;BME280;12726;49.148;8.582;2023-01-26T13:18:16;100860.84;;;0.46;85.74
24558;BME280;12726;49.148;8.582;2023-01-26T13:21:01;100877.53;;;0.37;85.73
24558;BME280;12726;49.148;8.582;2023-01-26T13:23:48;100872.41;;;0.35;86.78
24558;BME280;12726;49.148;8.582;2023-01-26T13:26:44;100866.41;;;0.43;87.63
24558;BME280;12726;49.148;8.582;2023-01-26T13:29:33;100873.81;;;0.39;87.02
24558;BME280;12726;49.148;8.582;2023-01-26T13:35:38;100873.09;;;0.28;87.53
24558;BME280;12726;49.148;8.582;2023-01-26T13:38:32;100872.78;;;0.31;87.16
24558;BME280;12726;49.148;8.582;2023-01-26T13:41:20;100874.19;;;0.25;87.37
24558;BME280;12726;49.148;8.582;2023-01-26T13:44:10;100864.56;;;0.24;88.53
24558;BME280;12726;49.148;8.582;2023-01-26T13:47:03;100877.19;;;0.11;88.20
24558;BME280;12726;49.148;8.582;2023-01-26T13:49:49;100877.16;;;0.02;89.35
24558;BME280;12726;49.148;8.582;2023-01-26T13:52:41;100878.00;;;0.02;89.32
24558;BME280;12726;49.148;8.582;2023-01-26T13:55:28;100874.66;;;0.00;89.70
24558;BME280;12726;49.148;8.582;2023-01-26T13:58:17;100872.81;;;0.00;90.47
24558;BME280;12726;49.148;8.582;2023-01-26T14:01:04;100879.25;;;0.08;90.93
24558;BME280;12726;49.148;8.582;2023-01-26T14:04:01;100881.78;;;0.09;90.14
24558;BME280;12726;49.148;8.582;2023-01-26T14:06:50;100879.00;;;0.11;89.60
24558;BME280;12726;49.148;8.582;2023-01-26T14:09:43;100877.06;;;0.13;89.48
24558;BME280;12726;49.148;8.582;2023-01-26T14:12:32;100882.19;;;0.05;89.66
24558;BME280;12726;49.148;8.582;2023-01-26T14:15:22;100883.56;;;-0.01;90.81
24558;BME280;12726;49.148;8.582;2023-01-26T14:18:19;100886.78;;;0.03;89.65
24558;BME280;12726;49.148;8.582;2023-01-26T14:21:13;100885.75;;;-0.06;90.15
24558;BME280;12726;49.148;8.582;2023-01-26T14:24:00;100884.53;;;-0.02;90.08
24558;BME280;12726;49.148;8.582;2023-01-26T14:26:46;100882.25;;;-0.07;90.12
24558;BME280;12726;49.148;8.582;2023-01-26T14:29:37;100882.97;;;-0.05;90.69
24558;BME280;12726;49.148;8.582;2023-01-26T14:32:25;100892.78;;;0.05;89.25
24558;BME280;12726;49.148;8.582;2023-01-26T14:35:18;100896.63;;;0.00;88.90
24558;BME280;12726;49.148;8.582;2023-01-26T14:38:13;100896.50;;;-0.08;89.53
24558;BME280;12726;49.148;8.582;2023-01-26T14:40:59;100891.75;;;-0.04;89.86
24558;BME280;12726;49.148;8.582;2023-01-26T14:43:45;100900.78;;;-0.07;90.03
24558;BME280;12726;49.148;8.582;2023-01-26T14:46:37;100893.84;;;-0.08;89.50
24558;BME280;12726;49.148;8.582;2023-01-26T14:49:37;100903.53;;;-0.18;89.90